sensor_id;sensor_type;location;lat;lon;timestamp;P1;durP1;ratioP1;P2;durP2;ratioP2
4307;SDS011;2167;53.448;9.984;2023-03-23T03:00:45;13.60;;;6.20;;
4307;SDS011;2167;53.448;9.984;2023-03-23T03:03:15;10.67;;;6.20;;
4307;SDS011;2167;53.448;9.984;2023-03-23T03:05:48;10.73;;;6.20;;
4307;SDS011;2167;53.448;9.984;2023-03-23T03:11:05;11.03;;;6.80;;
4307;SDS011;2167;53.448;9.984;2023-03-23T03:13:40;8.53;;;5.03;;
4307;SDS011;2167;53.448;9.984;2023-03-23T03:21:42;7.67;;;5.90;;
4307;SDS011;2167;53.448;9.984;2023-03-23T03:24:12;12.00;;;7.43;;
4307;SDS011;2167;53.448;9.984;2023-03-23T03:26:46;12.20;;;7.27;;
4307;SDS011;2167;53.448;9.984;2023-03-23T03:29:16;9.87;;;6.80;;
4307;SDS011;2167;53.448;9.984;2023-03-23T03:31:48;10.40;;;6.87;;
4307;SDS011;2167;53.448;9.984;2023-03-23T03:34:15;13.30;;;6.53;;
4307;SDS011;2167;53.448;9.984;2023-03-23T03:36:42;11.07;;;6.60;;
4307;SDS011;2167;53.448;9.984;2023-03-23T03:39:10;13.30;;;7.00;;
4307;SDS011;2167;53.448;9.984;2023-03-23T03:41:38;14.15;;;8.20;;
4307;SDS011;2167;53.448;9.984;2023-03-23T03:44:04;14.37;;;7.00;;
4307;SDS011;2167;53.448;9.984;2023-03-23T03:46:31;9.63;;;6.40;;
4307;SDS011;2167;53.448;9.984;2023-03-23T03:49:01;10.70;;;7.37;;
4307;SDS011;2167;53.448;9.984;2023-03-23T03:51:29;8.60;;;6.20;;
4307;SDS011;2167;53.448;9.984;2023-03-23T03:53:56;11.67;;;6.83;;
4307;SDS011;2167;53.448;9.984;2023-03-23T03:56:22;9.10;;;6.37;;
4307;SDS011;2167;53.448;9.984;2023-03-23T03:58:48;9.77;;;6.53;;
4307;SDS011;2167;53.448;9.984;2023-03-23T04:01:16;12.77;;;7.97;;
4307;SDS011;2167;53.448;9.984;2023-03-23T04:03:43;12.60;;;6.17;;
4307;SDS011;2167;53.448;9.984;2023-03-23T04:06:09;14.30;;;8.13;;
4307;SDS011;2167;53.448;9.984;2023-03-23T04:08:37;8.20;;;5.93;;
4307;SDS011;2167;53.448;9.984;2023-03-23T04:11:06;11.50;;;6.87;;
4307;SDS011;2167;53.448;9.984;2023-03-23T04:13:35;10.10;;;6.97;;
4307;SDS011;2167;53.448;9.984;2023-03-23T04:16:00;13.57;;;7.30;;
4307;SDS011;2167;53.448;9.984;2023-03-23T04:18:26;9.20;;;6.50;;
4307;SDS011;2167;53.448;9.984;2023-03-23T04:20:53;8.50;;;6.20;;
4307;SDS011;2167;53.448;9.984;2023-03-23T04:23:23;16.20;;;7.43;;
4307;SDS011;2167;53.448;9.984;2023-03-23T04:25:50;16.00;;;8.83;;
4307;SDS011;2167;53.448;9.984;2023-03-23T04:28:17;15.77;;;7.87;;
4307;SDS011;2167;53.448;9.984;2023-03-23T04:30:44;10.60;;;6.40;;
4307;SDS011;2167;53.448;9.984;2023-03-23T04:33:13;9.03;;;6.60;;
4307;SDS011;2167;53.448;9.984;2023-03-23T04:35:43;14.30;;;7.90;;
4307;SDS011;2167;53.448;9.984;2023-03-23T04:38:10;14.53;;;7.37;;
4307;SDS011;2167;53.448;9.984;2023-03-23T04:40:38;9.20;;;6.83;;
4307;SDS011;2167;53.448;9.984;2023-03-23T04:43:05;9.67;;;6.43;;
4307;SDS011;2167;53.448;9.984;2023-03-23T04:45:31;11.67;;;8.20;;
4307;SDS011;2167;53.448;9.984;2023-03-23T04:47:58;14.27;;;8.40;;
4307;SDS011;2167;53.448;9.984;2023-03-23T04:50:24;12.30;;;7.97;;
4307;SDS011;2167;53.448;9.984;2023-03-23T04:52:54;13.70;;;7.77;;
4307;SDS011;2167;53.448;9.984;2023-03-23T04:55:21;15.90;;;7.10;;
4307;SDS011;2167;53.448;9.984;2023-03-23T04:57:47;12.10;;;7.23;;
4307;SDS011;2167;53.448;9.984;2023-03-23T05:00:13;7.30;;;6.07;;
4307;SDS011;2167;53.448;9.984;2023-03-23T05:02:41;13.13;;;7.00;;
4307;SDS011;2167;53.448;9.984;2023-03-23T05:05:17;10.67;;;6.70;;
4307;SDS011;2167;53.448;9.984;2023-03-23T05:07:44;9.23;;;5.37;;
4307;SDS011;2167;53.448;9.984;2023-03-23T05:10:10;10.67;;;6.30;;
4307;SDS011;2167;53.448;9.984;2023-03-23T05:12:37;7.37;;;6.37;;
4307;SDS011;2167;53.448;9.984;2023-03-23T05:15:03;6.90;;;4.90;;
4307;SDS011;2167;53.448;9.984;2023-03-23T05:17:31;8.43;;;5.37;;
4307;SDS011;2167;53.448;9.984;2023-03-23T05:19:57;7.90;;;5.13;;
4307;SDS011;2167;53.448;9.984;2023-03-23T05:22:23;9.60;;;5.80;;
4307;SDS011;2167;53.448;9.984;2023-03-23T05:24:51;8.80;;;5.23;;
4307;SDS011;2167;53.448;9.984;2023-03-23T05:27:17;8.80;;;4.97;;
4307;SDS011;2167;53.448;9.984;2023-03-23T05:29:44;5.87;;;4.80;;
4307;SDS011;2167;53.448;9.984;2023-03-23T05:32:13;7.30;;;5.37;;
4307;SDS011;2167;53.448;9.984;2023-03-23T05:34:39;7.93;;;4.97;;
4307;SDS011;2167;53.448;9.984;2023-03-23T05:37:06;12.47;;;5.87;;
4307;SDS011;2167;53.448;9.984;2023-03-23T05:39:31;5.87;;;4.10;;
4307;SDS011;2167;53.448;9.984;2023-03-23T05:41:57;5.97;;;4.40;;
4307;SDS011;2167;53.448;9.984;2023-03-23T05:44:23;6.40;;;5.00;;
4307;SDS011;2167;53.448;9.984;2023-03-23T05:46:49;5.13;;;3.83;;
4307;SDS011;2167;53.448;9.984;2023-03-23T05:49:15;6.00;;;5.10;;
4307;SDS011;2167;53.448;9.984;2023-03-23T05:51:41;5.10;;;4.20;;
4307;SDS011;2167;53.448;9.984;2023-03-23T05:54:09;7.30;;;4.07;;
4307;SDS011;2167;53.448;9.984;2023-03-23T05:56:35;8.23;;;4.97;;
4307;SDS011;2167;53.448;9.984;2023-03-23T05:59:01;4.13;;;3.30;;
4307;SDS011;2167;53.448;9.984;2023-03-23T06:01:28;5.30;;;4.50;;
4307;SDS011;2167;53.448;9.984;2023-03-23T06:03:54;4.60;;;2.77;;
4307;SDS011;2167;53.448;9.984;2023-03-23T06:06:23;5.80;;;3.60;;
4307;SDS011;2167;53.448;9.984;2023-03-23T06:08:49;5.20;;;3.80;;
4307;SDS011;2167;53.448;9.984;2023-03-23T06:11:15;5.33;;;3.67;;
4307;SDS011;2167;53.448;9.984;2023-03-23T06:13:42;4.80;;;3.60;;
4307;SDS011;2167;53.448;9.984;2023-03-23T06:16:08;5.60;;;3.73;;
4307;SDS011;2167;53.448;9.984;2023-03-23T06:18:34;3.77;;;3.10;;
4307;SDS011;2167;53.448;9.984;2023-03-23T06:21:02;5.47;;;3.60;;
4307;SDS011;2167;53.448;9.984;2023-03-23T06:23:29;4.20;;;3.00;;
4307;SDS011;2167;53.448;9.984;2023-03-23T06:25:59;5.20;;;2.80;;
4307;SDS011;2167;53.448;9.984;2023-03-23T06:28:28;3.87;;;2.97;;
4307;SDS011;2167;53.448;9.984;2023-03-23T06:30:54;6.53;;;4.00;;
4307;SDS011;2167;53.448;9.984;2023-03-23T06:33:19;5.17;;;3.00;;
4307;SDS011;2167;53.448;9.984;2023-03-23T06:35:45;4.40;;;3.23;;
4307;SDS011;2167;53.448;9.984;2023-03-23T06:38:11;5.30;;;3.60;;
4307;SDS011;2167;53.448;9.984;2023-03-23T06:40:37;4.30;;;2.97;;
4307;SDS011;2167;53.448;9.984;2023-03-23T06:43:03;3.70;;;3.00;;
4307;SDS011;2167;53.448;9.984;2023-03-23T06:45:29;6.60;;;3.90;;
4307;SDS011;2167;53.448;9.984;2023-03-23T06:47:56;10.93;;;3.27;;
4307;SDS011;2167;53.448;9.984;2023-03-23T06:50:22;3.40;;;2.50;;
4307;SDS011;2167;53.448;9.984;2023-03-23T06:52:49;4.40;;;2.50;;
4307;SDS011;2167;53.448;9.984;2023-03-23T06:55:16;5.17;;;3.10;;
4307;SDS011;2167;53.448;9.984;2023-03-23T06:57:42;5.97;;;2.50;;
4307;SDS011;2167;53.448;9.984;2023-03-23T07:00:09;9.23;;;2.80;;
4307;SDS011;2167;53.448;9.984;2023-03-23T07:02:37;3.17;;;2.88;;
4307;SDS011;2167;53.448;9.984;2023-03-23T07:05:03;2.63;;;2.40;;
4307;SDS011;2167;53.448;9.984;2023-03-23T07:07:30;6.63;;;2.47;;
4307;SDS011;2167;53.448;9.984;2023-03-23T07:09:56;3.90;;;2.30;;
4307;SDS011;2167;53.448;9.984;2023-03-23T07:12:21;5.40;;;2.57;;
4307;SDS011;2167;53.448;9.984;2023-03-23T07:14:47;2.90;;;2.60;;
4307;SDS011;2167;53.448;9.984;2023-03-23T07:17:13;4.50;;;2.73;;
4307;SDS011;2167;53.448;9.984;2023-03-23T07:19:39;5.63;;;2.83;;
4307;SDS011;2167;53.448;9.984;2023-03-23T07:22:05;4.00;;;2.73;;
4307;SDS011;2167;53.448;9.984;2023-03-23T07:24:31;5.10;;;2.50;;
4307;SDS011;2167;53.448;9.984;2023-03-23T07:26:58;2.13;;;2.03;;
4307;SDS011;2167;53.448;9.984;2023-03-23T07:29:24;3.37;;;2.20;;
4307;SDS011;2167;53.448;9.984;2023-03-23T07:31:50;11.50;;;3.17;;
4307;SDS011;2167;53.448;9.984;2023-03-23T07:34:17;4.30;;;2.47;;
4307;SDS011;2167;53.448;9.984;2023-03-23T07:36:44;3.00;;;2.30;;
4307;SDS011;2167;53.448;9.984;2023-03-23T07:39:10;4.07;;;2.70;;
4307;SDS011;2167;53.448;9.984;2023-03-23T07:41:36;3.40;;;2.40;;
4307;SDS011;2167;53.448;9.984;2023-03-23T07:44:03;2.47;;;2.20;;
4307;SDS011;2167;53.448;9.984;2023-03-23T07:46:28;3.33;;;2.10;;
4307;SDS011;2167;53.448;9.984;2023-03-23T07:48:54;2.70;;;2.23;;
4307;SDS011;2167;53.448;9.984;2023-03-23T07:51:21;3.30;;;2.50;;
4307;SDS011;2167;53.448;9.984;2023-03-23T07:53:47;5.00;;;2.80;;
4307;SDS011;2167;53.448;9.984;2023-03-23T07:56:13;3.60;;;2.80;;
4307;SDS011;2167;53.448;9.984;2023-03-23T07:58:42;3.17;;;2.87;;
4307;SDS011;2167;53.448;9.984;2023-03-23T08:01:09;2.60;;;2.40;;
4307;SDS011;2167;53.448;9.984;2023-03-23T08:03:35;3.40;;;2.60;;
4307;SDS011;2167;53.448;9.984;2023-03-23T08:06:00;3.70;;;2.43;;
4307;SDS011;2167;53.448;9.984;2023-03-23T08:08:26;4.23;;;3.07;;
4307;SDS011;2167;53.448;9.984;2023-03-23T08:10:52;3.13;;;2.70;;
4307;SDS011;2167;53.448;9.984;2023-03-23T08:13:18;5.03;;;3.73;;
4307;SDS011;2167;53.448;9.984;2023-03-23T08:15:44;3.10;;;2.80;;
4307;SDS011;2167;53.448;9.984;2023-03-23T08:18:10;3.60;;;3.30;;
4307;SDS011;2167;53.448;9.984;2023-03-23T08:20:36;6.63;;;3.67;;
4307;SDS011;2167;53.448;9.984;2023-03-23T08:23:02;5.57;;;3.57;;
4307;SDS011;2167;53.448;9.984;2023-03-23T08:25:28;3.00;;;2.67;;
4307;SDS011;2167;53.448;9.984;2023-03-23T08:27:56;13.00;;;4.00;;
4307;SDS011;2167;53.448;9.984;2023-03-23T08:30:23;5.13;;;3.20;;
4307;SDS011;2167;53.448;9.984;2023-03-23T08:32:51;4.60;;;3.00;;
4307;SDS011;2167;53.448;9.984;2023-03-23T08:35:17;6.53;;;4.60;;
4307;SDS011;2167;53.448;9.984;2023-03-23T08:37:44;4.30;;;2.80;;
4307;SDS011;2167;53.448;9.984;2023-03-23T08:40:11;5.20;;;2.97;;
4307;SDS011;2167;53.448;9.984;2023-03-23T08:42:40;4.68;;;3.13;;
4307;SDS011;2167;53.448;9.984;2023-03-23T08:45:09;3.93;;;2.40;;
4307;SDS011;2167;53.448;9.984;2023-03-23T08:47:37;2.47;;;2.20;;
4307;SDS011;2167;53.448;9.984;2023-03-23T08:50:07;4.40;;;2.00;;
4307;SDS011;2167;53.448;9.984;2023-03-23T08:52:35;3.73;;;1.77;;
4307;SDS011;2167;53.448;9.984;2023-03-23T08:55:02;2.30;;;1.37;;
4307;SDS011;2167;53.448;9.984;2023-03-23T08:57:28;3.70;;;1.90;;
4307;SDS011;2167;53.448;9.984;2023-03-23T08:59:54;0.90;;;0.90;;
4307;SDS011;2167;53.448;9.984;2023-03-23T09:02:25;2.80;;;1.10;;
4307;SDS011;2167;53.448;9.984;2023-03-23T09:04:51;2.40;;;1.73;;
4307;SDS011;2167;53.448;9.984;2023-03-23T09:07:17;2.97;;;1.33;;
4307;SDS011;2167;53.448;9.984;2023-03-23T09:09:43;0.73;;;0.73;;
4307;SDS011;2167;53.448;9.984;2023-03-23T09:12:10;1.47;;;0.70;;
4307;SDS011;2167;53.448;9.984;2023-03-23T09:14:36;1.90;;;1.13;;
4307;SDS011;2167;53.448;9.984;2023-03-23T09:17:03;1.63;;;0.90;;
4307;SDS011;2167;53.448;9.984;2023-03-23T09:19:29;1.13;;;0.90;;
4307;SDS011;2167;53.448;9.984;2023-03-23T09:21:56;5.10;;;1.40;;
4307;SDS011;2167;53.448;9.984;2023-03-23T09:24:23;5.53;;;1.30;;
4307;SDS011;2167;53.448;9.984;2023-03-23T09:26:48;1.20;;;1.10;;
4307;SDS011;2167;53.448;9.984;2023-03-23T09:29:13;4.43;;;0.97;;
4307;SDS011;2167;53.448;9.984;2023-03-23T09:31:40;2.70;;;1.10;;
4307;SDS011;2167;53.448;9.984;2023-03-23T09:34:06;5.17;;;1.47;;
4307;SDS011;2167;53.448;9.984;2023-03-23T09:36:35;1.90;;;0.83;;
4307;SDS011;2167;53.448;9.984;2023-03-23T09:39:03;1.23;;;1.13;;
4307;SDS011;2167;53.448;9.984;2023-03-23T09:41:45;5.10;;;1.10;;
4307;SDS011;2167;53.448;9.984;2023-03-23T09:49:52;7.27;;;1.47;;
4307;SDS011;2167;53.448;9.984;2023-03-23T09:52:22;6.40;;;1.67;;
4307;SDS011;2167;53.448;9.984;2023-03-23T09:55:04;2.13;;;0.87;;
4307;SDS011;2167;53.448;9.984;2023-03-23T09:57:38;3.93;;;0.80;;
4307;SDS011;2167;53.448;9.984;2023-03-23T10:02:54;1.63;;;1.53;;
4307;SDS011;2167;53.448;9.984;2023-03-23T10:05:36;3.70;;;1.40;;
4307;SDS011;2167;53.448;9.984;2023-03-23T10:08:19;7.77;;;1.80;;
4307;SDS011;2167;53.448;9.984;2023-03-23T10:11:03;5.63;;;1.40;;
4307;SDS011;2167;53.448;9.984;2023-03-23T10:14:06;3.83;;;1.03;;
4307;SDS011;2167;53.448;9.984;2023-03-23T10:17:26;6.43;;;1.60;;
4307;SDS011;2167;53.448;9.984;2023-03-23T10:22:32;2.00;;;1.25;;
4307;SDS011;2167;53.448;9.984;2023-03-23T10:27:43;2.33;;;1.00;;
4307;SDS011;2167;53.448;9.984;2023-03-23T10:30:27;3.93;;;1.20;;
4307;SDS011;2167;53.448;9.984;2023-03-23T10:33:08;6.43;;;1.33;;
4307;SDS011;2167;53.448;9.984;2023-03-23T10:35:37;2.03;;;1.30;;
4307;SDS011;2167;53.448;9.984;2023-03-23T10:38:19;6.50;;;1.30;;
4307;SDS011;2167;53.448;9.984;2023-03-23T10:40:58;1.87;;;1.00;;
4307;SDS011;2167;53.448;9.984;2023-03-23T10:43:26;6.63;;;1.30;;
4307;SDS011;2167;53.448;9.984;2023-03-23T10:45:55;3.27;;;1.77;;
4307;SDS011;2167;53.448;9.984;2023-03-23T10:48:31;2.97;;;1.40;;
4307;SDS011;2167;53.448;9.984;2023-03-23T10:51:02;3.83;;;1.20;;
4307;SDS011;2167;53.448;9.984;2023-03-23T10:53:31;1.23;;;1.00;;
4307;SDS011;2167;53.448;9.984;2023-03-23T10:56:02;9.53;;;1.83;;
4307;SDS011;2167;53.448;9.984;2023-03-23T10:58:33;15.23;;;2.50;;
4307;SDS011;2167;53.448;9.984;2023-03-23T11:01:01;6.60;;;1.67;;
4307;SDS011;2167;53.448;9.984;2023-03-23T11:03:42;4.60;;;2.10;;
4307;SDS011;2167;53.448;9.984;2023-03-23T11:06:10;2.73;;;1.37;;
4307;SDS011;2167;53.448;9.984;2023-03-23T11:08:48;6.53;;;1.73;;
4307;SDS011;2167;53.448;9.984;2023-03-23T11:11:37;1.73;;;1.50;;
4307;SDS011;2167;53.448;9.984;2023-03-23T11:16:44;5.23;;;1.70;;
4307;SDS011;2167;53.448;9.984;2023-03-23T11:19:36;6.90;;;2.20;;
4307;SDS011;2167;53.448;9.984;2023-03-23T11:24:36;4.67;;;2.00;;
4307;SDS011;2167;53.448;9.984;2023-03-23T11:27:09;7.13;;;2.07;;
4307;SDS011;2167;53.448;9.984;2023-03-23T11:29:48;4.45;;;2.35;;
4307;SDS011;2167;53.448;9.984;2023-03-23T11:32:24;5.27;;;2.57;;
4307;SDS011;2167;53.448;9.984;2023-03-23T11:34:59;3.17;;;1.60;;
4307;SDS011;2167;53.448;9.984;2023-03-23T11:37:32;5.67;;;1.80;;
4307;SDS011;2167;53.448;9.984;2023-03-23T11:42:49;6.27;;;2.10;;
4307;SDS011;2167;53.448;9.984;2023-03-23T11:45:20;11.33;;;2.47;;
4307;SDS011;2167;53.448;9.984;2023-03-23T11:47:53;7.23;;;1.90;;
4307;SDS011;2167;53.448;9.984;2023-03-23T11:50:45;4.30;;;1.80;;
4307;SDS011;2167;53.448;9.984;2023-03-23T11:56:07;5.57;;;2.10;;
4307;SDS011;2167;53.448;9.984;2023-03-23T11:58:38;9.53;;;2.37;;
4307;SDS011;2167;53.448;9.984;2023-03-23T12:01:06;7.33;;;2.27;;
4307;SDS011;2167;53.448;9.984;2023-03-23T12:06:37;5.67;;;2.07;;
4307;SDS011;2167;53.448;9.984;2023-03-23T12:14:30;1.97;;;1.87;;
4307;SDS011;2167;53.448;9.984;2023-03-23T12:23:00;2.63;;;2.00;;
4307;SDS011;2167;53.448;9.984;2023-03-23T12:25:39;3.47;;;2.03;;
4307;SDS011;2167;53.448;9.984;2023-03-23T12:28:32;10.90;;;2.40;;
4307;SDS011;2167;53.448;9.984;2023-03-23T12:33:59;4.00;;;1.67;;
4307;SDS011;2167;53.448;9.984;2023-03-23T12:39:34;4.00;;;2.03;;
4307;SDS011;2167;53.448;9.984;2023-03-23T12:45:00;3.87;;;1.87;;
4307;SDS011;2167;53.448;9.984;2023-03-23T12:47:48;8.10;;;3.07;;
4307;SDS011;2167;53.448;9.984;2023-03-23T12:50:32;4.50;;;2.50;;
4307;SDS011;2167;53.448;9.984;2023-03-23T12:53:10;5.23;;;2.53;;
4307;SDS011;2167;53.448;9.984;2023-03-23T12:55:46;3.80;;;2.47;;
4307;SDS011;2167;53.448;9.984;2023-03-23T12:58:19;3.90;;;1.83;;
4307;SDS011;2167;53.448;9.984;2023-03-23T13:00:59;5.67;;;2.37;;
4307;SDS011;2167;53.448;9.984;2023-03-23T13:09:04;18.57;;;8.13;;
4307;SDS011;2167;53.448;9.984;2023-03-23T13:11:39;15.17;;;3.80;;
4307;SDS011;2167;53.448;9.984;2023-03-23T13:14:15;2.80;;;2.03;;
4307;SDS011;2167;53.448;9.984;2023-03-23T13:22:53;4.60;;;1.47;;
4307;SDS011;2167;53.448;9.984;2023-03-23T13:31:34;6.73;;;1.87;;
4307;SDS011;2167;53.448;9.984;2023-03-23T13:36:40;2.90;;;1.70;;
4307;SDS011;2167;53.448;9.984;2023-03-23T13:39:23;5.60;;;2.40;;
4307;SDS011;2167;53.448;9.984;2023-03-23T13:41:59;3.25;;;1.85;;
4307;SDS011;2167;53.448;9.984;2023-03-23T13:44:26;3.23;;;1.63;;
4307;SDS011;2167;53.448;9.984;2023-03-23T13:47:08;3.93;;;2.27;;
4307;SDS011;2167;53.448;9.984;2023-03-23T13:49:54;2.30;;;2.00;;
4307;SDS011;2167;53.448;9.984;2023-03-23T13:55:12;3.40;;;1.57;;
4307;SDS011;2167;53.448;9.984;2023-03-23T13:57:49;1.30;;;1.20;;
4307;SDS011;2167;53.448;9.984;2023-03-23T14:00:36;1.43;;;1.17;;
4307;SDS011;2167;53.448;9.984;2023-03-23T14:10:54;2.40;;;1.77;;
4307;SDS011;2167;53.448;9.984;2023-03-23T14:13:43;3.57;;;1.00;;
4307;SDS011;2167;53.448;9.984;2023-03-23T14:18:53;3.83;;;0.83;;
4307;SDS011;2167;53.448;9.984;2023-03-23T14:21:36;3.40;;;0.80;;
4307;SDS011;2167;53.448;9.984;2023-03-23T14:24:08;3.57;;;0.90;;
4307;SDS011;2167;53.448;9.984;2023-03-23T14:26:36;2.30;;;0.97;;
4307;SDS011;2167;53.448;9.984;2023-03-23T14:29:03;1.70;;;0.87;;
4307;SDS011;2167;53.448;9.984;2023-03-23T14:31:29;1.53;;;0.50;;
4307;SDS011;2167;53.448;9.984;2023-03-23T14:33:55;1.40;;;1.10;;
4307;SDS011;2167;53.448;9.984;2023-03-23T14:36:27;2.40;;;0.80;;
4307;SDS011;2167;53.448;9.984;2023-03-23T14:38:55;0.60;;;0.60;;
4307;SDS011;2167;53.448;9.984;2023-03-23T14:41:44;1.90;;;0.60;;
4307;SDS011;2167;53.448;9.984;2023-03-23T14:44:12;2.10;;;0.73;;
4307;SDS011;2167;53.448;9.984;2023-03-23T14:46:42;3.63;;;0.80;;
4307;SDS011;2167;53.448;9.984;2023-03-23T14:49:10;3.97;;;0.90;;
4307;SDS011;2167;53.448;9.984;2023-03-23T14:51:52;0.90;;;0.60;;
4307;SDS011;2167;53.448;9.984;2023-03-23T14:54:24;2.70;;;1.50;;
4307;SDS011;2167;53.448;9.984;2023-03-23T14:56:51;2.20;;;1.17;;
4307;SDS011;2167;53.448;9.984;2023-03-23T14:59:17;1.37;;;0.97;;
4307;SDS011;2167;53.448;9.984;2023-03-23T15:01:44;1.90;;;1.00;;
4307;SDS011;2167;53.448;9.984;2023-03-23T15:04:23;3.30;;;1.20;;
4307;SDS011;2167;53.448;9.984;2023-03-23T15:06:53;1.00;;;0.90;;
4307;SDS011;2167;53.448;9.984;2023-03-23T15:09:22;2.87;;;1.50;;
4307;SDS011;2167;53.448;9.984;2023-03-23T15:11:56;2.40;;;1.50;;
4307;SDS011;2167;53.448;9.984;2023-03-23T15:14:29;6.53;;;1.20;;
4307;SDS011;2167;53.448;9.984;2023-03-23T15:17:19;0.90;;;0.90;;
4307;SDS011;2167;53.448;9.984;2023-03-23T15:19:47;2.60;;;1.50;;
4307;SDS011;2167;53.448;9.984;2023-03-23T15:24:50;2.70;;;1.47;;
4307;SDS011;2167;53.448;9.984;2023-03-23T15:27:24;2.30;;;1.27;;
4307;SDS011;2167;53.448;9.984;2023-03-23T15:30:45;2.00;;;1.13;;
4307;SDS011;2167;53.448;9.984;2023-03-23T15:32:53;0.93;;;0.73;;
4307;SDS011;2167;53.448;9.984;2023-03-23T15:35:24;5.47;;;1.20;;
4307;SDS011;2167;53.448;9.984;2023-03-23T15:37:58;1.17;;;0.90;;
4307;SDS011;2167;53.448;9.984;2023-03-23T15:40:40;1.63;;;0.90;;
4307;SDS011;2167;53.448;9.984;2023-03-23T15:45:39;4.07;;;1.07;;
4307;SDS011;2167;53.448;9.984;2023-03-23T15:48:15;0.90;;;0.90;;
4307;SDS011;2167;53.448;9.984;2023-03-23T15:50:41;1.63;;;0.80;;
4307;SDS011;2167;53.448;9.984;2023-03-23T15:53:17;3.20;;;0.90;;
4307;SDS011;2167;53.448;9.984;2023-03-23T15:55:44;1.40;;;0.57;;
4307;SDS011;2167;53.448;9.984;2023-03-23T15:58:10;2.50;;;0.60;;
4307;SDS011;2167;53.448;9.984;2023-03-23T16:00:37;1.70;;;1.07;;
4307;SDS011;2167;53.448;9.984;2023-03-23T16:03:05;4.47;;;1.13;;
4307;SDS011;2167;53.448;9.984;2023-03-23T16:05:32;5.30;;;1.77;;
4307;SDS011;2167;53.448;9.984;2023-03-23T16:08:01;1.40;;;0.77;;
4307;SDS011;2167;53.448;9.984;2023-03-23T16:10:28;5.30;;;1.23;;
4307;SDS011;2167;53.448;9.984;2023-03-23T16:12:54;3.30;;;0.83;;
4307;SDS011;2167;53.448;9.984;2023-03-23T16:15:20;2.87;;;0.97;;
4307;SDS011;2167;53.448;9.984;2023-03-23T16:17:46;0.73;;;0.73;;
4307;SDS011;2167;53.448;9.984;2023-03-23T16:20:15;1.60;;;0.90;;
4307;SDS011;2167;53.448;9.984;2023-03-23T16:22:43;1.60;;;0.73;;
4307;SDS011;2167;53.448;9.984;2023-03-23T16:25:10;2.83;;;1.53;;
4307;SDS011;2167;53.448;9.984;2023-03-23T16:27:36;4.20;;;1.85;;
4307;SDS011;2167;53.448;9.984;2023-03-23T16:30:13;3.60;;;1.80;;
4307;SDS011;2167;53.448;9.984;2023-03-23T16:32:44;3.57;;;1.10;;
4307;SDS011;2167;53.448;9.984;2023-03-23T16:35:11;3.97;;;1.60;;
4307;SDS011;2167;53.448;9.984;2023-03-23T16:37:37;2.37;;;0.90;;
4307;SDS011;2167;53.448;9.984;2023-03-23T16:40:03;2.40;;;1.20;;
4307;SDS011;2167;53.448;9.984;2023-03-23T16:42:33;4.00;;;1.27;;
4307;SDS011;2167;53.448;9.984;2023-03-23T16:44:59;4.40;;;1.10;;
4307;SDS011;2167;53.448;9.984;2023-03-23T16:47:24;2.03;;;1.00;;
4307;SDS011;2167;53.448;9.984;2023-03-23T16:49:50;3.60;;;1.57;;
4307;SDS011;2167;53.448;9.984;2023-03-23T16:52:18;2.63;;;1.20;;
4307;SDS011;2167;53.448;9.984;2023-03-23T16:54:43;1.13;;;0.77;;
4307;SDS011;2167;53.448;9.984;2023-03-23T16:57:09;0.60;;;0.60;;
4307;SDS011;2167;53.448;9.984;2023-03-23T16:59:35;1.30;;;1.13;;
4307;SDS011;2167;53.448;9.984;2023-03-23T17:02:01;1.43;;;0.93;;
4307;SDS011;2167;53.448;9.984;2023-03-23T17:04:31;2.90;;;1.33;;
4307;SDS011;2167;53.448;9.984;2023-03-23T17:06:57;1.57;;;0.97;;
4307;SDS011;2167;53.448;9.984;2023-03-23T17:09:24;6.93;;;0.90;;
4307;SDS011;2167;53.448;9.984;2023-03-23T17:11:51;6.10;;;1.10;;
4307;SDS011;2167;53.448;9.984;2023-03-23T17:14:17;1.90;;;1.37;;
4307;SDS011;2167;53.448;9.984;2023-03-23T17:16:43;2.20;;;1.20;;
4307;SDS011;2167;53.448;9.984;2023-03-23T17:19:08;4.73;;;1.23;;
4307;SDS011;2167;53.448;9.984;2023-03-23T17:21:34;4.73;;;1.13;;
4307;SDS011;2167;53.448;9.984;2023-03-23T17:24:00;2.03;;;0.97;;
4307;SDS011;2167;53.448;9.984;2023-03-23T17:26:25;2.30;;;1.27;;
4307;SDS011;2167;53.448;9.984;2023-03-23T17:28:51;3.73;;;1.60;;
4307;SDS011;2167;53.448;9.984;2023-03-23T17:31:17;2.70;;;1.10;;
4307;SDS011;2167;53.448;9.984;2023-03-23T17:33:42;3.90;;;1.43;;
4307;SDS011;2167;53.448;9.984;2023-03-23T17:36:08;5.30;;;1.63;;
4307;SDS011;2167;53.448;9.984;2023-03-23T17:38:34;3.20;;;1.00;;
4307;SDS011;2167;53.448;9.984;2023-03-23T17:41:00;3.47;;;1.10;;
4307;SDS011;2167;53.448;9.984;2023-03-23T17:43:26;6.53;;;1.90;;
4307;SDS011;2167;53.448;9.984;2023-03-23T17:45:52;6.77;;;1.40;;
4307;SDS011;2167;53.448;9.984;2023-03-23T17:48:17;8.00;;;1.83;;
4307;SDS011;2167;53.448;9.984;2023-03-23T17:50:47;5.60;;;2.00;;
4307;SDS011;2167;53.448;9.984;2023-03-23T17:53:13;3.40;;;2.10;;
4307;SDS011;2167;53.448;9.984;2023-03-23T17:55:39;3.07;;;1.40;;
4307;SDS011;2167;53.448;9.984;2023-03-23T17:58:06;8.90;;;1.97;;
4307;SDS011;2167;53.448;9.984;2023-03-23T18:00:33;2.60;;;1.80;;
4307;SDS011;2167;53.448;9.984;2023-03-23T18:02:58;4.10;;;2.00;;
4307;SDS011;2167;53.448;9.984;2023-03-23T18:05:24;2.30;;;1.60;;
4307;SDS011;2167;53.448;9.984;2023-03-23T18:07:52;2.67;;;1.80;;
4307;SDS011;2167;53.448;9.984;2023-03-23T18:10:18;4.25;;;2.40;;
4307;SDS011;2167;53.448;9.984;2023-03-23T18:12:44;5.73;;;2.20;;
4307;SDS011;2167;53.448;9.984;2023-03-23T18:15:12;5.13;;;2.37;;
4307;SDS011;2167;53.448;9.984;2023-03-23T18:17:38;2.30;;;1.80;;
4307;SDS011;2167;53.448;9.984;2023-03-23T18:20:04;11.83;;;2.03;;
4307;SDS011;2167;53.448;9.984;2023-03-23T18:22:30;3.67;;;1.30;;
4307;SDS011;2167;53.448;9.984;2023-03-23T18:24:56;5.23;;;2.10;;
4307;SDS011;2167;53.448;9.984;2023-03-23T18:27:22;2.07;;;1.20;;
4307;SDS011;2167;53.448;9.984;2023-03-23T18:29:48;2.10;;;1.13;;
4307;SDS011;2167;53.448;9.984;2023-03-23T18:32:17;2.00;;;1.20;;
4307;SDS011;2167;53.448;9.984;2023-03-23T18:34:43;3.90;;;1.63;;
4307;SDS011;2167;53.448;9.984;2023-03-23T18:37:10;2.43;;;1.53;;
4307;SDS011;2167;53.448;9.984;2023-03-23T18:39:35;3.33;;;2.00;;
4307;SDS011;2167;53.448;9.984;2023-03-23T18:42:02;4.27;;;1.60;;
4307;SDS011;2167;53.448;9.984;2023-03-23T18:44:28;4.97;;;1.90;;
4307;SDS011;2167;53.448;9.984;2023-03-23T18:46:55;2.00;;;1.53;;
4307;SDS011;2167;53.448;9.984;2023-03-23T18:49:21;3.10;;;1.90;;
4307;SDS011;2167;53.448;9.984;2023-03-23T18:51:47;5.27;;;1.93;;
4307;SDS011;2167;53.448;9.984;2023-03-23T18:54:12;3.63;;;2.10;;
4307;SDS011;2167;53.448;9.984;2023-03-23T18:56:38;2.20;;;1.57;;
4307;SDS011;2167;53.448;9.984;2023-03-23T18:59:03;2.20;;;1.83;;
4307;SDS011;2167;53.448;9.984;2023-03-23T19:01:30;4.13;;;1.57;;
4307;SDS011;2167;53.448;9.984;2023-03-23T19:03:56;3.30;;;2.13;;
4307;SDS011;2167;53.448;9.984;2023-03-23T19:06:23;6.73;;;1.90;;
4307;SDS011;2167;53.448;9.984;2023-03-23T19:08:50;8.70;;;2.30;;
4307;SDS011;2167;53.448;9.984;2023-03-23T19:11:17;3.90;;;1.47;;
4307;SDS011;2167;53.448;9.984;2023-03-23T19:13:46;2.03;;;1.60;;
4307;SDS011;2167;53.448;9.984;2023-03-23T19:16:13;1.73;;;1.63;;
4307;SDS011;2167;53.448;9.984;2023-03-23T19:18:38;2.53;;;1.73;;
4307;SDS011;2167;53.448;9.984;2023-03-23T19:21:10;3.20;;;2.10;;
4307;SDS011;2167;53.448;9.984;2023-03-23T19:23:36;2.73;;;1.60;;
4307;SDS011;2167;53.448;9.984;2023-03-23T19:26:01;2.10;;;1.90;;
4307;SDS011;2167;53.448;9.984;2023-03-23T19:28:27;2.20;;;1.53;;
4307;SDS011;2167;53.448;9.984;2023-03-23T19:30:54;4.87;;;2.27;;
4307;SDS011;2167;53.448;9.984;2023-03-23T19:33:21;2.27;;;2.07;;
4307;SDS011;2167;53.448;9.984;2023-03-23T19:35:48;3.70;;;2.07;;
4307;SDS011;2167;53.448;9.984;2023-03-23T19:38:16;5.20;;;1.67;;
4307;SDS011;2167;53.448;9.984;2023-03-23T19:40:52;3.40;;;2.13;;
4307;SDS011;2167;53.448;9.984;2023-03-23T19:43:21;4.57;;;2.63;;
4307;SDS011;2167;53.448;9.984;2023-03-23T19:45:47;3.30;;;2.23;;
4307;SDS011;2167;53.448;9.984;2023-03-23T19:48:14;1.93;;;1.83;;
4307;SDS011;2167;53.448;9.984;2023-03-23T19:50:41;3.10;;;2.10;;
4307;SDS011;2167;53.448;9.984;2023-03-23T19:53:08;3.17;;;2.40;;
4307;SDS011;2167;53.448;9.984;2023-03-23T19:55:33;3.40;;;2.73;;
4307;SDS011;2167;53.448;9.984;2023-03-23T19:57:59;9.43;;;2.67;;
4307;SDS011;2167;53.448;9.984;2023-03-23T20:00:25;3.13;;;2.30;;
4307;SDS011;2167;53.448;9.984;2023-03-23T20:02:51;3.20;;;2.10;;